Valley, WA

5:51 AM PDT on October 23, 2014 (GMT -0700)
Spokane International | Change Station
CLOSE
Current Station
Airport
Location: Spokane,
Elevation: 2365 ft
Nearby Weather Stations

Elev 2365 ft 47.62 °N, 117.53 °W | Updated 58 minutes ago

Overcast
Overcast
52 °F
Feels Like 52 °F
N
10
Wind Variable Wind from South

Today
High -- | Low -- °F
--% Chance of Precip.
Yesterday
High -- | Low -- °F
Precip. -- in
7:22 AM 5:47 PM
Waning Crescent, 0% visible
Pressure 29.78 in
Visibility 10.0 miles
Clouds Few 6000 ft
Mostly Cloudy 11000 ft
Dew Point 48 °F
Humidity 86%
Rainfall 0.02 in
Snow Depth Not available.
UV 0 out of 12
Pollen .40 out of 12
PM2.5 Good
Flu Activity Sporadic
METAR KGEG 231153Z 19009KT 10SM FEW060 BKN110 11/09 A2978 RMK AO2 SLP084 VCSH S-SW 60002 70026 T01110089 10117 20106 53005 $

More Conditions Fewer Conditions

Pressure 29.78 in
Visibility 10.0 miles
Clouds Few 6000 ft
Mostly Cloudy 11000 ft
Dew Point 48 °F
Humidity 86%
Rainfall 0.02 in
Snow Depth Not available.
UV 0 out of 12
Pollen .40 out of 12
PM2.5 Good
Flu Activity Sporadic
METAR KGEG 231153Z 19009KT 10SM FEW060 BKN110 11/09 A2978 RMK AO2 SLP084 VCSH S-SW 60002 70026 T01110089 10117 20106 53005 $

More Conditions Fewer Conditions

10-Day Weather Forecast

Almanac

Astronomy

Oct. 23, 2014 Rise Set
Actual Time 7:22 AM PDT 5:47 PM PDT
Civil Twilight 6:50 AM PDT 6:19 PM PDT
Nautical Twilight 6:14 AM PDT 6:55 PM PDT
Astronomical Twilight 5:38 AM PDT 7:31 PM PDT
Moon 7:05 AM PDT 5:51 PM PDT
Length of Visible Light 11h 28m
Length of Day
10h 24m
Tomorrow will be 3m 18s shorter.
Waning Crescent, 0% of the Moon is Illuminated
Today
Waning Crescent
Oct 23
New
Oct 30
First Quarter
Nov 6
Full
Nov 14
Last Quarter

Today's Extremes

State Highs State Lows

Community

WunderPhotos

Upload Photos

1,764,214 photos uploaded!

Nearby

Air Quality

  Air Quality AQ Index Pollutant
Yesterday Good
PM10
Current Good
PM2.5
Thursday Good
PM10
Thursday Good
CO
Friday Good
PM10
Friday Good
CO

Snow Depth

Station Depth Elevation
Quartz Peak 1 in 4700 ft
Bunchgrass Meadow 0 in 5000 ft
Moses Mountain 0 in 5300 ft
Pope Ridge 0 in 3540 ft
Trough 0 in 5300 ft

Earthquake Activity

City Distance Mag. Time & Date
No recent earthquake activity has been reported nearby.
Minimum magnitude displayed is 2.5.

Coastal Water Temperatures

Place Temperature
No Stations Reporting

Nearby Weather Stations